Terminal Aerodrome Forecast
Issued by NWS

Home | Current Version | Previous Version | Text Only | Print | Product List | Glossary On
Versions: 1 2 3 4 5 6 7 8 9 10 11 12 13 14 15 16 17 18 19 20 21 22 23 24 25
000
FTUS41 KALY 221227 AAA
TAFPSF
TAF AMD
KPSF 221227Z 2212/2312 00000KT 3SM BR BKN009
     FM221300 22005KT P6SM SCT070
     FM221500 22010G16KT P6SM SCT050 BKN100
     FM222200 23012G22KT P6SM VCSH SCT025 BKN040 OVC080 PROB30
      2300/2305 2SM TSRA BR SCT008 OVC025CB
     FM230500 24010KT P6SM VCSH OVC025
     FM231000 28010KT P6SM BKN025 OVC040=

USA.gov is the U.S. government's official web portal to all federal, state and local government web resources and services.